sensor_id;sensor_type;location;lat;lon;timestamp;pressure;altitude;pressure_sealevel;temperature;humidity
62126;BME280;69591;53.282;6.150;2023-05-19T00:00:43;103096.47;;;16.92;50.21
62126;BME280;69591;53.282;6.150;2023-05-19T00:01:47;103098.41;;;16.91;50.27
62126;BME280;69591;53.282;6.150;2023-05-19T00:02:49;103094.88;;;16.91;50.55
62126;BME280;69591;53.282;6.150;2023-05-19T00:03:52;103096.81;;;16.90;50.57
62126;BME280;69591;53.282;6.150;2023-05-19T00:04:53;103097.59;;;16.91;50.25
62126;BME280;69591;53.282;6.150;2023-05-19T00:05:55;103097.59;;;16.91;50.41
62126;BME280;69591;53.282;6.150;2023-05-19T00:06:57;103100.31;;;16.91;50.62
62126;BME280;69591;53.282;6.150;2023-05-19T00:07:59;103094.09;;;16.90;50.30
62126;BME280;69591;53.282;6.150;2023-05-19T00:09:01;103094.88;;;16.91;50.31
62126;BME280;69591;53.282;6.150;2023-05-19T00:10:05;103090.53;;;16.90;50.46
62126;BME280;69591;53.282;6.150;2023-05-19T00:11:07;103094.09;;;16.90;50.48
62126;BME280;69591;53.282;6.150;2023-05-19T00:12:09;103090.53;;;16.90;50.19
62126;BME280;69591;53.282;6.150;2023-05-19T00:13:11;103083.47;;;16.89;50.22
62126;BME280;69591;53.282;6.150;2023-05-19T00:14:13;103079.63;;;16.90;50.25
62126;BME280;69591;53.282;6.150;2023-05-19T00:15:14;103090.53;;;16.90;50.37
62126;BME280;69591;53.282;6.150;2023-05-19T00:16:16;103083.47;;;16.89;50.38
62126;BME280;69591;53.282;6.150;2023-05-19T00:17:18;103083.47;;;16.89;50.50
62126;BME280;69591;53.282;6.150;2023-05-19T00:18:20;103080.75;;;16.89;50.51
62126;BME280;69591;53.282;6.150;2023-05-19T00:19:21;103084.59;;;16.88;50.27
62126;BME280;69591;53.282;6.150;2023-05-19T00:20:23;103086.19;;;16.89;50.25
62126;BME280;69591;53.282;6.150;2023-05-19T00:21:24;103083.47;;;16.89;50.35
62126;BME280;69591;53.282;6.150;2023-05-19T00:22:26;103083.47;;;16.89;50.85
62126;BME280;69591;53.282;6.150;2023-05-19T00:23:27;103072.56;;;16.89;50.23
62126;BME280;69591;53.282;6.150;2023-05-19T00:24:29;103087.34;;;16.88;50.67
62126;BME280;69591;53.282;6.150;2023-05-19T00:25:32;103088.16;;;16.88;50.55
62126;BME280;69591;53.282;6.150;2023-05-19T00:26:33;103084.59;;;16.88;50.67
62126;BME280;69591;53.282;6.150;2023-05-19T00:27:38;103084.59;;;16.88;50.45
62126;BME280;69591;53.282;6.150;2023-05-19T00:28:41;103081.88;;;16.88;50.26
62126;BME280;69591;53.282;6.150;2023-05-19T00:29:42;103076.44;;;16.88;50.37
62126;BME280;69591;53.282;6.150;2023-05-19T00:30:44;103070.97;;;16.88;50.67
62126;BME280;69591;53.282;6.150;2023-05-19T00:31:46;103070.16;;;16.87;50.41
62126;BME280;69591;53.282;6.150;2023-05-19T00:32:47;103070.16;;;16.87;50.38
62126;BME280;69591;53.282;6.150;2023-05-19T00:33:49;103075.63;;;16.87;50.53
62126;BME280;69591;53.282;6.150;2023-05-19T00:34:50;103070.16;;;16.87;50.45
62126;BME280;69591;53.282;6.150;2023-05-19T00:35:52;103063.13;;;16.86;50.52
62126;BME280;69591;53.282;6.150;2023-05-19T00:36:53;103062.31;;;16.86;50.62
62126;BME280;69591;53.282;6.150;2023-05-19T00:37:55;103061.19;;;16.87;50.46
62126;BME280;69591;53.282;6.150;2023-05-19T00:38:57;103062.31;;;16.86;50.58
62126;BME280;69591;53.282;6.150;2023-05-19T00:39:58;103063.13;;;16.86;50.48
62126;BME280;69591;53.282;6.150;2023-05-19T00:41:01;103063.13;;;16.86;50.33
62126;BME280;69591;53.282;6.150;2023-05-19T00:42:03;103063.91;;;16.87;50.41
62126;BME280;69591;53.282;6.150;2023-05-19T00:43:05;103068.56;;;16.86;50.26
62126;BME280;69591;53.282;6.150;2023-05-19T00:44:06;103063.91;;;16.87;50.41
62126;BME280;69591;53.282;6.150;2023-05-19T00:45:08;103062.31;;;16.86;50.42
62126;BME280;69591;53.282;6.150;2023-05-19T00:46:10;103063.13;;;16.86;50.42
62126;BME280;69591;53.282;6.150;2023-05-19T00:47:11;103056.84;;;16.86;50.27
62126;BME280;69591;53.282;6.150;2023-05-19T00:48:13;103059.56;;;16.86;50.64
62126;BME280;69591;53.282;6.150;2023-05-19T00:49:14;103063.13;;;16.86;50.32
62126;BME280;69591;53.282;6.150;2023-05-19T00:50:16;103060.72;;;16.85;50.45
62126;BME280;69591;53.282;6.150;2023-05-19T00:51:18;103063.13;;;16.86;50.23
62126;BME280;69591;53.282;6.150;2023-05-19T00:52:19;103067.75;;;16.86;50.41
62126;BME280;69591;53.282;6.150;2023-05-19T00:53:21;103059.56;;;16.86;50.49
62126;BME280;69591;53.282;6.150;2023-05-19T00:54:23;103061.53;;;16.85;50.54
62126;BME280;69591;53.282;6.150;2023-05-19T00:55:25;103066.16;;;16.85;50.33
62126;BME280;69591;53.282;6.150;2023-05-19T00:56:29;103057.97;;;16.85;50.46
62126;BME280;69591;53.282;6.150;2023-05-19T00:57:33;103059.91;;;16.84;50.68
62126;BME280;69591;53.282;6.150;2023-05-19T00:58:35;103059.91;;;16.84;50.40
62126;BME280;69591;53.282;6.150;2023-05-19T00:59:37;103060.72;;;16.85;50.36
62126;BME280;69591;53.282;6.150;2023-05-19T01:00:39;103058.78;;;16.85;50.15
62126;BME280;69591;53.282;6.150;2023-05-19T01:01:40;103062.63;;;16.84;50.36
62126;BME280;69591;53.282;6.150;2023-05-19T01:02:42;103064.56;;;16.84;50.39
62126;BME280;69591;53.282;6.150;2023-05-19T01:03:43;103064.56;;;16.84;50.42
62126;BME280;69591;53.282;6.150;2023-05-19T01:04:45;103059.13;;;16.84;50.35
62126;BME280;69591;53.282;6.150;2023-05-19T01:05:48;103075.50;;;16.84;50.63
62126;BME280;69591;53.282;6.150;2023-05-19T01:06:49;103053.66;;;16.84;50.55
62126;BME280;69591;53.282;6.150;2023-05-19T01:07:51;103063.78;;;16.83;50.42
62126;BME280;69591;53.282;6.150;2023-05-19T01:08:52;103062.19;;;16.82;50.57
62126;BME280;69591;53.282;6.150;2023-05-19T01:09:54;103058.66;;;16.82;50.39
62126;BME280;69591;53.282;6.150;2023-05-19T01:10:56;103062.97;;;16.83;50.29
62126;BME280;69591;53.282;6.150;2023-05-19T01:11:59;103066.81;;;16.82;50.57
62126;BME280;69591;53.282;6.150;2023-05-19T01:13:01;103065.69;;;16.83;50.46
62126;BME280;69591;53.282;6.150;2023-05-19T01:14:02;103068.41;;;16.83;50.63
62126;BME280;69591;53.282;6.150;2023-05-19T01:15:05;103051.28;;;16.82;50.59
62126;BME280;69591;53.282;6.150;2023-05-19T01:16:09;103056.72;;;16.82;50.70
62126;BME280;69591;53.282;6.150;2023-05-19T01:17:13;103060.22;;;16.83;50.38
62126;BME280;69591;53.282;6.150;2023-05-19T01:18:24;103053.19;;;16.82;50.50
62126;BME280;69591;53.282;6.150;2023-05-19T01:19:34;103061.38;;;16.82;50.22
62126;BME280;69591;53.282;6.150;2023-05-19T01:20:41;103059.47;;;16.82;50.34
62126;BME280;69591;53.282;6.150;2023-05-19T01:23:19;103049.66;;;16.81;50.63
62126;BME280;69591;53.282;6.150;2023-05-19T01:24:32;103055.09;;;16.81;50.28
62126;BME280;69591;53.282;6.150;2023-05-19T01:25:48;103055.91;;;16.82;50.53
62126;BME280;69591;53.282;6.150;2023-05-19T01:27:04;103046.16;;;16.81;50.60
62126;BME280;69591;53.282;6.150;2023-05-19T01:28:14;103054.31;;;16.81;50.65
62126;BME280;69591;53.282;6.150;2023-05-19T01:29:27;103054.31;;;16.81;50.35
62126;BME280;69591;53.282;6.150;2023-05-19T01:30:30;103048.88;;;16.81;50.29
62126;BME280;69591;53.282;6.150;2023-05-19T01:31:33;103049.66;;;16.81;50.38
62126;BME280;69591;53.282;6.150;2023-05-19T01:32:36;103043.41;;;16.81;50.32
62126;BME280;69591;53.282;6.150;2023-05-19T01:33:38;103053.50;;;16.80;50.49
62126;BME280;69591;53.282;6.150;2023-05-19T01:34:42;103047.25;;;16.80;50.26
62126;BME280;69591;53.282;6.150;2023-05-19T01:35:44;103045.34;;;16.80;50.62
62126;BME280;69591;53.282;6.150;2023-05-19T01:36:46;103043.41;;;16.81;50.45
62126;BME280;69591;53.282;6.150;2023-05-19T01:37:48;103037.16;;;16.80;50.54
62126;BME280;69591;53.282;6.150;2023-05-19T01:38:53;103041.78;;;16.80;50.50
62126;BME280;69591;53.282;6.150;2023-05-19T01:39:54;103035.53;;;16.79;50.42
62126;BME280;69591;53.282;6.150;2023-05-19T01:40:56;103044.53;;;16.80;50.23
62126;BME280;69591;53.282;6.150;2023-05-19T01:41:58;103040.97;;;16.79;50.31
62126;BME280;69591;53.282;6.150;2023-05-19T01:43:01;103039.06;;;16.80;50.46
62126;BME280;69591;53.282;6.150;2023-05-19T01:44:03;103033.13;;;16.78;50.61
62126;BME280;69591;53.282;6.150;2023-05-19T01:45:05;103041.78;;;16.80;50.46
62126;BME280;69591;53.282;6.150;2023-05-19T01:46:08;103038.59;;;16.78;50.25
62126;BME280;69591;53.282;6.150;2023-05-19T01:47:10;103032.03;;;16.79;50.54
62126;BME280;69591;53.282;6.150;2023-05-19T01:48:12;103037.47;;;16.79;50.40
62126;BME280;69591;53.282;6.150;2023-05-19T01:49:14;103038.59;;;16.78;50.34
62126;BME280;69591;53.282;6.150;2023-05-19T01:50:18;103034.75;;;16.79;50.35
62126;BME280;69591;53.282;6.150;2023-05-19T01:51:19;103033.13;;;16.78;50.31
62126;BME280;69591;53.282;6.150;2023-05-19T01:52:21;103027.69;;;16.78;50.47
62126;BME280;69591;53.282;6.150;2023-05-19T01:53:22;103030.41;;;16.78;50.30
62126;BME280;69591;53.282;6.150;2023-05-19T01:54:24;103029.63;;;16.77;50.54
62126;BME280;69591;53.282;6.150;2023-05-19T01:55:26;103030.41;;;16.78;50.50
62126;BME280;69591;53.282;6.150;2023-05-19T01:56:30;103026.91;;;16.77;50.17
62126;BME280;69591;53.282;6.150;2023-05-19T01:57:38;103023.34;;;16.77;50.54
62126;BME280;69591;53.282;6.150;2023-05-19T01:58:43;103026.09;;;16.77;50.27
62126;BME280;69591;53.282;6.150;2023-05-19T01:59:46;103028.00;;;16.76;50.22
62126;BME280;69591;53.282;6.150;2023-05-19T02:00:53;103030.72;;;16.76;50.23
62126;BME280;69591;53.282;6.150;2023-05-19T02:01:58;103026.09;;;16.77;50.44
62126;BME280;69591;53.282;6.150;2023-05-19T02:03:05;103030.72;;;16.76;50.06
62126;BME280;69591;53.282;6.150;2023-05-19T02:04:12;103030.72;;;16.76;50.22
62126;BME280;69591;53.282;6.150;2023-05-19T02:05:17;103031.53;;;16.77;50.45
62126;BME280;69591;53.282;6.150;2023-05-19T02:06:26;103027.22;;;16.76;50.38
62126;BME280;69591;53.282;6.150;2023-05-19T02:07:34;103036.19;;;16.76;50.36
62126;BME280;69591;53.282;6.150;2023-05-19T02:08:38;103028.34;;;16.75;50.70
62126;BME280;69591;53.282;6.150;2023-05-19T02:09:48;103032.69;;;16.76;50.23
62126;BME280;69591;53.282;6.150;2023-05-19T02:10:53;103034.59;;;16.75;50.31
62126;BME280;69591;53.282;6.150;2023-05-19T02:11:58;103024.50;;;16.76;50.50
62126;BME280;69591;53.282;6.150;2023-05-19T02:13:02;103027.22;;;16.76;50.23
62126;BME280;69591;53.282;6.150;2023-05-19T02:14:07;103019.38;;;16.74;50.18
62126;BME280;69591;53.282;6.150;2023-05-19T02:15:09;103022.88;;;16.75;50.13
62126;BME280;69591;53.282;6.150;2023-05-19T02:16:11;103020.16;;;16.75;50.37
62126;BME280;69591;53.282;6.150;2023-05-19T02:17:15;103022.88;;;16.75;50.36
62126;BME280;69591;53.282;6.150;2023-05-19T02:18:18;103022.88;;;16.75;50.47
62126;BME280;69591;53.282;6.150;2023-05-19T02:19:25;103022.09;;;16.74;50.14
62126;BME280;69591;53.282;6.150;2023-05-19T02:20:28;103017.41;;;16.75;50.37
62126;BME280;69591;53.282;6.150;2023-05-19T02:21:30;103019.38;;;16.74;50.54
62126;BME280;69591;53.282;6.150;2023-05-19T02:22:32;103021.28;;;16.74;50.28
62126;BME280;69591;53.282;6.150;2023-05-19T02:23:33;103017.41;;;16.75;50.10
62126;BME280;69591;53.282;6.150;2023-05-19T02:24:35;103020.16;;;16.75;50.34
62126;BME280;69591;53.282;6.150;2023-05-19T02:25:36;103023.69;;;16.75;50.41
62126;BME280;69591;53.282;6.150;2023-05-19T02:26:39;103017.75;;;16.73;50.22
62126;BME280;69591;53.282;6.150;2023-05-19T02:27:41;103010.38;;;16.74;50.31
62126;BME280;69591;53.282;6.150;2023-05-19T02:28:42;103006.06;;;16.73;50.09
62126;BME280;69591;53.282;6.150;2023-05-19T02:29:44;103013.09;;;16.74;50.41
62126;BME280;69591;53.282;6.150;2023-05-19T02:30:45;103006.84;;;16.73;50.28
62126;BME280;69591;53.282;6.150;2023-05-19T02:31:47;103007.97;;;16.72;50.31
62126;BME280;69591;53.282;6.150;2023-05-19T02:32:50;103006.06;;;16.73;50.47
62126;BME280;69591;53.282;6.150;2023-05-19T02:33:51;103003.34;;;16.73;50.60
62126;BME280;69591;53.282;6.150;2023-05-19T02:34:53;103008.78;;;16.73;50.25
62126;BME280;69591;53.282;6.150;2023-05-19T02:35:54;103007.66;;;16.74;50.72
62126;BME280;69591;53.282;6.150;2023-05-19T02:36:57;103011.53;;;16.73;50.44
62126;BME280;69591;53.282;6.150;2023-05-19T02:37:58;103007.97;;;16.72;50.22
62126;BME280;69591;53.282;6.150;2023-05-19T02:39:00;103004.44;;;16.72;50.50
62126;BME280;69591;53.282;6.150;2023-05-19T02:40:01;103007.16;;;16.72;50.56
62126;BME280;69591;53.282;6.150;2023-05-19T02:41:03;103004.44;;;16.72;50.22
62126;BME280;69591;53.282;6.150;2023-05-19T02:42:04;103006.41;;;16.71;50.60
62126;BME280;69591;53.282;6.150;2023-05-19T02:43:06;103002.53;;;16.72;50.57
62126;BME280;69591;53.282;6.150;2023-05-19T02:44:07;103002.53;;;16.72;50.43
62126;BME280;69591;53.282;6.150;2023-05-19T02:45:10;102996.59;;;16.70;50.56
62126;BME280;69591;53.282;6.150;2023-05-19T02:46:14;103007.16;;;16.72;50.46
62126;BME280;69591;53.282;6.150;2023-05-19T02:47:15;103000.13;;;16.71;50.56
62126;BME280;69591;53.282;6.150;2023-05-19T02:48:19;103000.94;;;16.71;50.57
62126;BME280;69591;53.282;6.150;2023-05-19T02:49:21;102999.00;;;16.72;50.41
62126;BME280;69591;53.282;6.150;2023-05-19T02:50:22;102995.81;;;16.70;50.50
62126;BME280;69591;53.282;6.150;2023-05-19T02:51:23;103004.00;;;16.70;50.70
62126;BME280;69591;53.282;6.150;2023-05-19T02:52:25;103001.72;;;16.72;50.49
62126;BME280;69591;53.282;6.150;2023-05-19T02:53:26;103010.22;;;16.70;50.79
62126;BME280;69591;53.282;6.150;2023-05-19T02:54:28;103004.78;;;16.70;50.63
62126;BME280;69591;53.282;6.150;2023-05-19T02:55:30;103005.59;;;16.71;50.43
62126;BME280;69591;53.282;6.150;2023-05-19T02:56:31;103011.84;;;16.71;50.67
62126;BME280;69591;53.282;6.150;2023-05-19T02:57:33;103009.44;;;16.70;50.52
62126;BME280;69591;53.282;6.150;2023-05-19T02:58:35;103008.66;;;16.69;50.62
62126;BME280;69591;53.282;6.150;2023-05-19T02:59:36;103004.00;;;16.70;50.79
62126;BME280;69591;53.282;6.150;2023-05-19T03:00:38;103005.09;;;16.69;50.51
62126;BME280;69591;53.282;6.150;2023-05-19T03:01:39;103002.38;;;16.69;50.58
62126;BME280;69591;53.282;6.150;2023-05-19T03:02:41;103005.09;;;16.69;50.68
62126;BME280;69591;53.282;6.150;2023-05-19T03:03:44;103000.47;;;16.69;50.51
62126;BME280;69591;53.282;6.150;2023-05-19T03:04:45;103003.19;;;16.69;50.41
62126;BME280;69591;53.282;6.150;2023-05-19T03:05:47;102999.66;;;16.69;50.71
62126;BME280;69591;53.282;6.150;2023-05-19T03:06:48;103002.38;;;16.69;50.64
62126;BME280;69591;53.282;6.150;2023-05-19T03:07:50;102997.72;;;16.69;50.75
62126;BME280;69591;53.282;6.150;2023-05-19T03:08:52;102996.13;;;16.68;50.56
62126;BME280;69591;53.282;6.150;2023-05-19T03:09:53;103003.19;;;16.69;50.70
62126;BME280;69591;53.282;6.150;2023-05-19T03:10:55;102992.59;;;16.68;50.58
62126;BME280;69591;53.282;6.150;2023-05-19T03:11:56;102996.13;;;16.68;50.33
62126;BME280;69591;53.282;6.150;2023-05-19T03:12:58;103002.38;;;16.69;50.43
62126;BME280;69591;53.282;6.150;2023-05-19T03:13:59;102996.91;;;16.69;50.56
62126;BME280;69591;53.282;6.150;2023-05-19T03:15:01;102990.66;;;16.68;50.66
62126;BME280;69591;53.282;6.150;2023-05-19T03:16:02;102991.47;;;16.69;50.67
62126;BME280;69591;53.282;6.150;2023-05-19T03:17:04;102992.59;;;16.68;50.47
62126;BME280;69591;53.282;6.150;2023-05-19T03:18:05;102990.66;;;16.68;50.52
62126;BME280;69591;53.282;6.150;2023-05-19T03:19:08;102989.88;;;16.68;50.42
62126;BME280;69591;53.282;6.150;2023-05-19T03:20:10;102990.66;;;16.68;50.42
62126;BME280;69591;53.282;6.150;2023-05-19T03:21:12;102992.59;;;16.68;50.37
62126;BME280;69591;53.282;6.150;2023-05-19T03:22:13;102991.47;;;16.69;50.42
62126;BME280;69591;53.282;6.150;2023-05-19T03:23:15;102987.94;;;16.68;50.82
62126;BME280;69591;53.282;6.150;2023-05-19T03:24:16;102990.66;;;16.68;50.46
62126;BME280;69591;53.282;6.150;2023-05-19T03:25:18;102995.34;;;16.68;50.65
62126;BME280;69591;53.282;6.150;2023-05-19T03:26:19;102991.47;;;16.69;50.66
62126;BME280;69591;53.282;6.150;2023-05-19T03:27:21;102989.88;;;16.68;50.41
62126;BME280;69591;53.282;6.150;2023-05-19T03:28:23;102989.88;;;16.68;50.66
62126;BME280;69591;53.282;6.150;2023-05-19T03:29:24;102995.34;;;16.68;50.50
62126;BME280;69591;53.282;6.150;2023-05-19T03:30:26;102989.06;;;16.67;50.36
62126;BME280;69591;53.282;6.150;2023-05-19T03:31:40;102994.53;;;16.67;50.66
62126;BME280;69591;53.282;6.150;2023-05-19T03:32:42;102991.81;;;16.67;50.35
62126;BME280;69591;53.282;6.150;2023-05-19T03:33:43;102989.88;;;16.68;50.52
62126;BME280;69591;53.282;6.150;2023-05-19T03:34:47;102984.75;;;16.66;50.35
62126;BME280;69591;53.282;6.150;2023-05-19T03:35:48;102998.06;;;16.68;50.70
62126;BME280;69591;53.282;6.150;2023-05-19T03:36:50;102990.22;;;16.66;50.65
62126;BME280;69591;53.282;6.150;2023-05-19T03:37:52;102999.16;;;16.67;50.84
62126;BME280;69591;53.282;6.150;2023-05-19T03:38:54;102990.22;;;16.66;50.41
62126;BME280;69591;53.282;6.150;2023-05-19T03:39:56;102995.66;;;16.66;50.91
62126;BME280;69591;53.282;6.150;2023-05-19T03:40:57;102997.59;;;16.66;50.76
62126;BME280;69591;53.282;6.150;2023-05-19T03:41:59;102998.41;;;16.66;50.47
62126;BME280;69591;53.282;6.150;2023-05-19T03:43:00;102999.16;;;16.67;50.50
62126;BME280;69591;53.282;6.150;2023-05-19T03:44:02;102996.44;;;16.67;50.79
62126;BME280;69591;53.282;6.150;2023-05-19T03:45:03;102996.44;;;16.67;50.50
62126;BME280;69591;53.282;6.150;2023-05-19T03:46:05;102996.78;;;16.65;50.68
62126;BME280;69591;53.282;6.150;2023-05-19T03:47:26;102990.53;;;16.65;50.31
62126;BME280;69591;53.282;6.150;2023-05-19T03:48:35;102993.72;;;16.67;50.56
62126;BME280;69591;53.282;6.150;2023-05-19T03:49:54;102988.25;;;16.67;50.76
62126;BME280;69591;53.282;6.150;2023-05-19T03:51:23;103003.84;;;16.66;50.78
62126;BME280;69591;53.282;6.150;2023-05-19T03:52:29;102993.72;;;16.67;50.63
62126;BME280;69591;53.282;6.150;2023-05-19T03:53:38;102992.13;;;16.66;50.51
62126;BME280;69591;53.282;6.150;2023-05-19T03:54:40;102990.53;;;16.65;50.80
62126;BME280;69591;53.282;6.150;2023-05-19T03:55:41;102992.94;;;16.66;50.55
62126;BME280;69591;53.282;6.150;2023-05-19T03:56:43;102989.41;;;16.66;50.83
62126;BME280;69591;53.282;6.150;2023-05-19T03:57:44;102989.41;;;16.66;50.77
62126;BME280;69591;53.282;6.150;2023-05-19T03:58:46;102989.88;;;16.68;50.56
62126;BME280;69591;53.282;6.150;2023-05-19T03:59:48;102983.94;;;16.66;50.68
62126;BME280;69591;53.282;6.150;2023-05-19T04:00:50;102986.69;;;16.66;50.87
62126;BME280;69591;53.282;6.150;2023-05-19T04:01:51;102989.41;;;16.66;50.71
62126;BME280;69591;53.282;6.150;2023-05-19T04:02:53;102987.47;;;16.66;50.57
62126;BME280;69591;53.282;6.150;2023-05-19T04:03:55;102986.69;;;16.66;50.89
62126;BME280;69591;53.282;6.150;2023-05-19T04:04:58;102986.69;;;16.66;50.92
62126;BME280;69591;53.282;6.150;2023-05-19T04:05:59;102990.22;;;16.66;50.93
62126;BME280;69591;53.282;6.150;2023-05-19T04:07:01;102990.22;;;16.66;50.71
62126;BME280;69591;53.282;6.150;2023-05-19T04:08:02;102992.94;;;16.66;50.76
62126;BME280;69591;53.282;6.150;2023-05-19T04:09:09;102992.13;;;16.66;51.00
62126;BME280;69591;53.282;6.150;2023-05-19T04:10:11;102985.88;;;16.65;50.60
62126;BME280;69591;53.282;6.150;2023-05-19T04:11:12;102993.72;;;16.67;50.84
62126;BME280;69591;53.282;6.150;2023-05-19T04:12:14;102987.47;;;16.66;50.68
62126;BME280;69591;53.282;6.150;2023-05-19T04:13:16;102993.72;;;16.67;50.72
62126;BME280;69591;53.282;6.150;2023-05-19T04:14:17;102990.22;;;16.66;50.91
62126;BME280;69591;53.282;6.150;2023-05-19T04:15:18;103003.03;;;16.66;50.89
62126;BME280;69591;53.282;6.150;2023-05-19T04:16:20;102993.72;;;16.67;50.97
62126;BME280;69591;53.282;6.150;2023-05-19T04:17:23;102992.13;;;16.66;50.80
62126;BME280;69591;53.282;6.150;2023-05-19T04:18:25;102988.59;;;16.65;50.84
62126;BME280;69591;53.282;6.150;2023-05-19T04:19:29;102992.94;;;16.66;50.97
62126;BME280;69591;53.282;6.150;2023-05-19T04:20:32;102999.16;;;16.67;50.89
62126;BME280;69591;53.282;6.150;2023-05-19T04:21:33;102993.72;;;16.67;51.09
62126;BME280;69591;53.282;6.150;2023-05-19T04:22:35;102998.41;;;16.66;50.75
62126;BME280;69591;53.282;6.150;2023-05-19T04:23:37;102998.06;;;16.68;50.65
62126;BME280;69591;53.282;6.150;2023-05-19T04:24:38;102993.72;;;16.67;50.88
62126;BME280;69591;53.282;6.150;2023-05-19T04:25:40;102999.97;;;16.67;50.85
62126;BME280;69591;53.282;6.150;2023-05-19T04:26:41;102996.44;;;16.67;50.82
62126;BME280;69591;53.282;6.150;2023-05-19T04:27:43;102993.72;;;16.67;50.98
62126;BME280;69591;53.282;6.150;2023-05-19T04:28:44;102998.41;;;16.66;50.92
62126;BME280;69591;53.282;6.150;2023-05-19T04:29:46;102991.00;;;16.67;51.04
62126;BME280;69591;53.282;6.150;2023-05-19T04:30:47;102993.72;;;16.67;50.86
62126;BME280;69591;53.282;6.150;2023-05-19T04:31:49;102995.34;;;16.68;51.15
62126;BME280;69591;53.282;6.150;2023-05-19T04:32:50;102989.06;;;16.67;51.16
62126;BME280;69591;53.282;6.150;2023-05-19T04:33:52;102993.72;;;16.67;51.08
62126;BME280;69591;53.282;6.150;2023-05-19T04:34:55;102991.00;;;16.67;51.10
62126;BME280;69591;53.282;6.150;2023-05-19T04:36:00;102991.00;;;16.67;51.22
62126;BME280;69591;53.282;6.150;2023-05-19T04:37:02;102989.88;;;16.68;50.92
62126;BME280;69591;53.282;6.150;2023-05-19T04:38:03;102993.72;;;16.67;51.26
62126;BME280;69591;53.282;6.150;2023-05-19T04:39:07;102980.09;;;16.67;50.97
62126;BME280;69591;53.282;6.150;2023-05-19T04:40:09;102987.94;;;16.68;50.91
62126;BME280;69591;53.282;6.150;2023-05-19T04:41:11;102985.53;;;16.67;51.19
62126;BME280;69591;53.282;6.150;2023-05-19T04:42:14;102985.19;;;16.68;51.31
62126;BME280;69591;53.282;6.150;2023-05-19T04:43:15;102990.66;;;16.68;51.27
62126;BME280;69591;53.282;6.150;2023-05-19T04:44:17;102985.19;;;16.68;51.20
62126;BME280;69591;53.282;6.150;2023-05-19T04:45:22;102987.16;;;16.68;51.09
62126;BME280;69591;53.282;6.150;2023-05-19T04:46:25;102985.19;;;16.68;51.32
62126;BME280;69591;53.282;6.150;2023-05-19T04:47:28;102986.00;;;16.69;51.37
62126;BME280;69591;53.282;6.150;2023-05-19T04:48:30;102985.19;;;16.68;51.22
62126;BME280;69591;53.282;6.150;2023-05-19T04:49:31;102989.56;;;16.69;51.42
62126;BME280;69591;53.282;6.150;2023-05-19T04:50:33;102988.75;;;16.69;51.32
62126;BME280;69591;53.282;6.150;2023-05-19T04:51:36;102988.75;;;16.69;51.16
62126;BME280;69591;53.282;6.150;2023-05-19T04:52:37;102992.28;;;16.69;51.15
62126;BME280;69591;53.282;6.150;2023-05-19T04:53:40;102992.28;;;16.69;51.60
62126;BME280;69591;53.282;6.150;2023-05-19T04:54:43;102984.91;;;16.70;51.29
62126;BME280;69591;53.282;6.150;2023-05-19T04:55:47;102995.00;;;16.69;51.40
62126;BME280;69591;53.282;6.150;2023-05-19T04:56:48;102993.88;;;16.70;51.22
62126;BME280;69591;53.282;6.150;2023-05-19T04:57:51;102993.88;;;16.70;51.18
62126;BME280;69591;53.282;6.150;2023-05-19T04:58:53;102993.09;;;16.70;51.48
62126;BME280;69591;53.282;6.150;2023-05-19T04:59:56;102999.31;;;16.70;51.49
62126;BME280;69591;53.282;6.150;2023-05-19T05:00:57;102995.81;;;16.70;51.20
62126;BME280;69591;53.282;6.150;2023-05-19T05:01:59;102999.31;;;16.70;51.50
62126;BME280;69591;53.282;6.150;2023-05-19T05:03:03;102995.81;;;16.70;51.61
62126;BME280;69591;53.282;6.150;2023-05-19T05:04:05;103003.66;;;16.71;51.60
62126;BME280;69591;53.282;6.150;2023-05-19T05:05:08;103004.44;;;16.72;51.59
62126;BME280;69591;53.282;6.150;2023-05-19T05:06:09;103001.72;;;16.72;51.50
62126;BME280;69591;53.282;6.150;2023-05-19T05:07:13;103000.59;;;16.73;51.56
62126;BME280;69591;53.282;6.150;2023-05-19T05:08:15;103008.78;;;16.73;51.62
62126;BME280;69591;53.282;6.150;2023-05-19T05:09:17;103008.78;;;16.73;51.40
62126;BME280;69591;53.282;6.150;2023-05-19T05:10:18;102999.78;;;16.72;51.67
62126;BME280;69591;53.282;6.150;2023-05-19T05:11:20;102997.88;;;16.73;52.06
62126;BME280;69591;53.282;6.150;2023-05-19T05:12:23;103002.53;;;16.72;51.81
62126;BME280;69591;53.282;6.150;2023-05-19T05:13:24;103006.06;;;16.73;51.48
62126;BME280;69591;53.282;6.150;2023-05-19T05:14:27;103001.38;;;16.73;51.83
62126;BME280;69591;53.282;6.150;2023-05-19T05:15:29;103006.84;;;16.73;51.70
62126;BME280;69591;53.282;6.150;2023-05-19T05:16:33;103010.38;;;16.74;51.81
62126;BME280;69591;53.282;6.150;2023-05-19T05:17:35;103007.66;;;16.74;51.60
62126;BME280;69591;53.282;6.150;2023-05-19T05:18:37;103004.91;;;16.74;51.78
62126;BME280;69591;53.282;6.150;2023-05-19T05:19:39;103004.91;;;16.74;51.66
62126;BME280;69591;53.282;6.150;2023-05-19T05:20:41;103010.38;;;16.74;51.74
62126;BME280;69591;53.282;6.150;2023-05-19T05:21:44;103004.13;;;16.73;51.67
62126;BME280;69591;53.282;6.150;2023-05-19T05:22:48;103005.72;;;16.74;52.13
62126;BME280;69591;53.282;6.150;2023-05-19T05:23:50;103006.50;;;16.75;51.66
62126;BME280;69591;53.282;6.150;2023-05-19T05:24:54;103013.59;;;16.76;51.92
62126;BME280;69591;53.282;6.150;2023-05-19T05:25:56;102999.47;;;16.74;51.96
62126;BME280;69591;53.282;6.150;2023-05-19T05:26:57;103005.72;;;16.74;51.80
62126;BME280;69591;53.282;6.150;2023-05-19T05:27:59;103006.50;;;16.75;52.13
62126;BME280;69591;53.282;6.150;2023-05-19T05:29:01;103010.06;;;16.75;51.50
62126;BME280;69591;53.282;6.150;2023-05-19T05:30:03;103010.38;;;16.74;51.81